Cheyenne Regional Jerry Olson Field
KCYS : rendu visible

Aérodrome :











RETROUVEZ-NOUS SUR...

 
LOGIN :

S'inscrire | Disclaimer

   EN    FR    IT 

 









Légende :    VFR   VFR Marginal   IFR   IFR Intensif   IFR Très Intensif
Visi : 
Plafond : 
>= 8 km
>= 3000ft
5 à 8 km
1000 à 3000 ft
1500m à 5 km
500 à 1000 ft
800 à 1500m
200 à 500 ft
< 800m
< 200 ft
Symboles :   Orages  Brouillard  Fortes neiges  Fortes précipitations  Vent > 20 kt






- Altitude de l'aérodrome : 6159 ft
- Code IATA : CYS


KCYS - Cheyenne Regional Jerry Olson Field

DERNIER METAR :
  • 211553Z 32004KT 10SM FEW009 OVC031 M06/M09 A3008 RMK AO2 SLP232 T10561089

METARs EXPIRÉS :
  • 211453Z 34009KT 10SM SCT009 OVC032 M06/M09 A3006 RMK AO2 SLP232 T10611089 53009
  • 211444Z 34008KT 10SM SCT009 OVC032 M06/M09 A3006 RMK AO2 T10611089
  • 211434Z 36006KT 10SM BKN008 OVC032 M06/M09 A3006 RMK AO2 T10611089
  • 211405Z 35009KT 10SM SCT008 OVC031 M07/M09 A3004 RMK AO2 T10671089
  • 211353Z 35004KT 10SM BKN009 OVC031 M06/M09 A3005 RMK AO2 SLP223 T10611089
  • 211342Z 36008KT 10SM BKN009 OVC032 M06/M09 A3004 RMK AO2 T10611089

TAF KCYS
Valide du 21 à 15h jusqu'au 22 à 12h UTC


211502Z 2115/2212 35008KT P6SM SCT009 OVC035
FM211800 09008KT P6SM BKN025
FM220100 18007KT P6SM BKN035



MET'MAP, la Météo Aéronautique d'un coup d'oeil ! - Copyright ORBIFLY Décembre 2007 - Disclaimer

ORBIFLY MET'MAP TEAM :

Programmation & Développement : Alexandra Zaïnal
Conception & Développement : Baudouin d'Aumeries
Co-Programmation & Développement : Marc-Olivier Méhu
Soutien technique & logistique : Manuel Goepfert

Contact : metmap@orbifly.com




SOURCES & CREDITS :

   NOAA       Earth
Advisory